Time;durP1;ratioP1;P1;durP2;ratioP2;P2;SDS_P1;SDS_P2;PMS_P1;PMS_P2;Temp;Humidity;BMP_temperature;BMP_pressure;BME280_temperature;BME280_humidity;BME280_pressure;Samples;Min_cycle;Max_cycle;Signal;HPM_P1;HPM_P2
2021/12/24 00:00:20;;;;;;;79.78;49.05;;;;;;;-144.47;100.00;61586.06;5031273;28;20151;-79
2021/12/24 00:02:47;;;;;;;82.35;46.55;;;;;;;-144.47;100.00;61586.06;5013652;28;20038;-80
2021/12/24 00:05:12;;;;;;;117.45;48.67;;;;;;;-144.47;100.00;61586.06;5031292;28;20047;-79
2021/12/24 00:07:38;;;;;;;109.57;49.35;;;;;;;-144.47;100.00;61586.06;5013130;28;20401;-79
2021/12/24 00:10:07;;;;;;;91.97;49.50;;;;;;;-144.47;100.00;61586.06;5014109;28;20042;-80
2021/12/24 00:12:35;;;;;;;129.00;51.35;;;;;;;-144.47;100.00;61586.06;5031977;28;20137;-79
2021/12/24 00:15:12;;;;;;;91.97;50.47;;;;;;;-144.47;100.00;61586.06;5015925;28;20029;-79
2021/12/24 00:17:38;;;;;;;92.88;51.78;;;;;;;-144.47;100.00;61586.06;5040235;28;20482;-79
2021/12/24 00:20:22;;;;;;;107.65;50.08;;;;;;;-144.47;100.00;61586.06;5037307;28;20045;-79
2021/12/24 00:23:26;;;;;;;141.95;49.30;;;;;;;-144.47;100.00;61586.06;5033656;28;20401;-79
2021/12/24 00:36:42;;;;;;;173.35;51.17;;;;;;;-144.47;100.00;61586.06;5027663;28;20042;-79
2021/12/24 00:39:07;;;;;;;156.15;50.50;;;;;;;-144.47;100.00;61586.06;5029991;28;20040;-79
2021/12/24 00:41:33;;;;;;;166.82;52.20;;;;;;;-144.47;100.00;61586.06;5011809;28;20029;-80
2021/12/24 00:43:59;;;;;;;187.10;52.55;;;;;;;-144.47;100.00;61586.06;5030423;28;20504;-79
2021/12/24 00:46:24;;;;;;;167.23;55.45;;;;;;;-144.47;100.00;61586.06;5029879;28;20116;-79
2021/12/24 00:48:51;;;;;;;187.00;57.92;;;;;;;-144.47;100.00;61586.06;5014282;28;20039;-80
2021/12/24 00:51:19;;;;;;;168.10;60.40;;;;;;;-144.47;100.00;61586.06;5033228;28;20077;-79
2021/12/24 00:56:13;;;;;;;145.65;58.00;;;;;;;-144.47;100.00;61586.06;5015197;28;20045;-79
2021/12/24 00:58:40;;;;;;;157.50;57.83;;;;;;;-144.47;100.00;61586.06;5014753;28;20029;-79
2021/12/24 01:01:08;;;;;;;153.40;57.33;;;;;;;-144.47;100.00;61586.06;5032918;28;20175;-79
2021/12/24 01:03:34;;;;;;;152.13;56.17;;;;;;;-144.47;100.00;61586.06;5032558;28;20037;-79
2021/12/24 01:06:00;;;;;;;144.75;59.05;;;;;;;-144.47;100.00;61586.06;5014777;28;20458;-78
2021/12/24 01:08:25;;;;;;;211.45;60.90;;;;;;;-144.47;100.00;61586.06;5002326;28;20124;-79
2021/12/24 01:10:58;;;;;;;188.20;58.50;;;;;;;-144.47;100.00;61586.06;5015101;28;20029;-79
2021/12/24 01:13:25;;;;;;;116.57;55.92;;;;;;;-144.47;100.00;61586.06;5011115;28;20045;-80
2021/12/24 01:15:57;;;;;;;118.13;59.80;;;;;;;-144.47;100.00;61586.06;5032771;28;20033;-80
2021/12/24 01:23:47;;;;;;;101.88;54.15;;;;;;;-144.47;100.00;61586.06;5011536;28;20033;-79
2021/12/24 01:26:20;;;;;;;101.28;55.53;;;;;;;-144.47;100.00;61586.06;5015491;28;20127;-79
2021/12/24 01:44:56;;;;;;;112.20;54.72;;;;;;;-144.47;100.00;61586.06;5011196;28;20072;-77
2021/12/24 01:47:22;;;;;;;114.53;50.72;;;;;;;-144.47;100.00;61586.06;5014887;28;20048;-78
2021/12/24 01:49:48;;;;;;;89.30;52.33;;;;;;;-144.47;100.00;61586.06;5032655;28;20032;-79
2021/12/24 01:52:16;;;;;;;117.80;50.92;;;;;;;-144.47;100.00;61586.06;5014582;28;20175;-80
2021/12/24 01:54:45;;;;;;;104.25;52.85;;;;;;;-144.47;100.00;61586.06;5011304;28;20512;-79
2021/12/24 01:57:14;;;;;;;88.30;51.75;;;;;;;-144.47;100.00;61586.06;5012136;28;20041;-79
2021/12/24 01:59:41;;;;;;;96.17;52.73;;;;;;;-144.47;100.00;61586.06;5011419;28;20088;-79
2021/12/24 02:02:07;;;;;;;89.45;51.85;;;;;;;-144.47;100.00;61586.06;5014521;28;20099;-79
2021/12/24 02:04:33;;;;;;;82.97;49.95;;;;;;;-144.47;100.00;61586.06;5032163;28;20111;-79
2021/12/24 02:06:59;;;;;;;77.85;48.72;;;;;;;-144.47;100.00;61586.06;5014643;28;20033;-79
2021/12/24 02:09:24;;;;;;;75.80;45.83;;;;;;;-144.47;100.00;61586.06;5014085;28;20041;-79
2021/12/24 02:11:52;;;;;;;106.93;46.45;;;;;;;-144.47;100.00;61586.06;4997572;28;20045;-79
2021/12/24 02:14:21;;;;;;;76.45;45.53;;;;;;;-144.47;100.00;61586.06;5014263;28;20402;-79
2021/12/24 02:30:38;;;;;;;75.70;45.70;;;;;;;-144.47;100.00;61586.06;5029108;28;20037;-80
2021/12/24 02:33:04;;;;;;;73.13;46.40;;;;;;;-144.47;100.00;61586.06;5013916;28;20525;-79
2021/12/24 02:35:31;;;;;;;74.30;45.75;;;;;;;-144.47;100.00;61586.06;5031422;28;20160;-79
2021/12/24 02:37:57;;;;;;;74.30;44.60;;;;;;;-144.47;100.00;61586.06;5024048;28;20041;-79
2021/12/24 02:40:23;;;;;;;88.57;45.90;;;;;;;-144.47;100.00;61586.06;5031618;28;20037;-79
2021/12/24 02:42:53;;;;;;;76.75;45.42;;;;;;;-144.47;100.00;61586.06;5031747;28;20032;-80
2021/12/24 02:45:20;;;;;;;85.82;44.55;;;;;;;-144.47;100.00;61586.06;5032185;28;20038;-80
2021/12/24 02:56:03;;;;;;;82.93;47.38;;;;;;;-144.47;100.00;61586.06;5028640;28;20124;-79
2021/12/24 02:58:39;;;;;;;79.57;48.90;;;;;;;-144.47;100.00;61586.06;5013656;28;20405;-80
2021/12/24 03:01:05;;;;;;;90.80;47.40;;;;;;;-144.47;100.00;61586.06;5029050;28;20037;-80
2021/12/24 03:03:31;;;;;;;88.25;48.40;;;;;;;-144.47;100.00;61586.06;5013650;28;20034;-80
2021/12/24 03:05:56;;;;;;;75.75;45.42;;;;;;;-144.47;100.00;61586.06;5031655;28;20496;-80
2021/12/24 03:08:22;;;;;;;84.40;48.63;;;;;;;-144.47;100.00;61586.06;5013784;28;20752;-80
2021/12/24 03:10:47;;;;;;;77.20;45.55;;;;;;;-144.47;100.00;61586.06;5013718;28;20466;-79
2021/12/24 03:13:13;;;;;;;81.70;45.45;;;;;;;-144.47;100.00;61586.06;5009607;28;20080;-79
2021/12/24 03:15:39;;;;;;;78.35;44.53;;;;;;;-144.47;100.00;61586.06;5011701;28;20033;-80
2021/12/24 03:18:04;;;;;;;117.75;43.05;;;;;;;-144.47;100.00;61586.06;5011165;28;20124;-80
2021/12/24 03:20:34;;;;;;;95.32;45.35;;;;;;;-144.47;100.00;61586.06;5010768;28;20397;-79
2021/12/24 03:23:32;;;;;;;73.20;43.78;;;;;;;-144.47;100.00;61586.06;5013021;28;20052;-80
2021/12/24 03:25:55;;;;;;;73.20;42.58;;;;;;;-144.47;100.00;61586.06;5027570;28;20037;-79
2021/12/24 03:28:21;;;;;;;80.32;44.95;;;;;;;-144.47;100.00;61586.06;5013473;28;20032;-78
2021/12/24 03:30:46;;;;;;;73.82;44.83;;;;;;;-144.47;100.00;61586.06;5013201;28;20022;-79
2021/12/24 03:33:12;;;;;;;72.00;40.15;;;;;;;-144.47;100.00;61586.06;5031257;28;20067;-78
2021/12/24 03:35:37;;;;;;;107.38;42.55;;;;;;;-144.47;100.00;61586.06;4998231;28;20060;-79
2021/12/24 03:38:03;;;;;;;104.50;44.75;;;;;;;-144.47;100.00;61586.06;5014168;28;20075;-79
2021/12/24 03:40:29;;;;;;;76.05;41.33;;;;;;;-144.47;100.00;61586.06;5013274;28;20029;-79
2021/12/24 03:42:54;;;;;;;100.43;42.00;;;;;;;-144.47;100.00;61586.06;5009572;28;20038;-79
2021/12/24 03:46:29;;;;;;;114.85;41.53;;;;;;;-144.47;100.00;61586.06;5013492;28;20049;-79
2021/12/24 03:48:23;;;;;;;88.88;38.33;;;;;;;-144.47;100.00;61586.06;5016108;28;20057;-79
2021/12/24 03:51:04;;;;;;;72.63;42.13;;;;;;;-144.47;100.00;61586.06;5013176;28;20065;-79
2021/12/24 03:56:15;;;;;;;115.65;41.88;;;;;;;-144.47;100.00;61586.06;5029959;28;20045;-81
2021/12/24 03:58:42;;;;;;;93.63;44.35;;;;;;;-144.47;100.00;61586.06;5013027;28;20035;-78
2021/12/24 04:01:26;;;;;;;80.10;45.38;;;;;;;-144.47;100.00;61586.06;5030469;28;20492;-79
2021/12/24 04:04:10;;;;;;;86.03;46.58;;;;;;;-144.47;100.00;61586.06;5028686;28;20398;-80
2021/12/24 04:06:59;;;;;;;93.13;47.70;;;;;;;-144.47;100.00;61586.06;4989435;28;20493;-79
2021/12/24 04:10:18;;;;;;;95.75;47.83;;;;;;;-144.47;100.00;61586.06;5002568;28;20033;-80
2021/12/24 04:13:02;;;;;;;89.72;48.80;;;;;;;-144.47;100.00;61586.06;5027626;28;20520;-80
2021/12/24 04:15:27;;;;;;;92.40;46.83;;;;;;;-144.47;100.00;61586.06;5010605;28;20034;-80
2021/12/24 04:17:53;;;;;;;89.80;48.30;;;;;;;-144.47;100.00;61586.06;5010395;28;20029;-80
2021/12/24 04:25:47;;;;;;;78.35;44.17;;;;;;;-144.47;100.00;61586.06;5017038;28;20056;-79
2021/12/24 04:28:12;;;;;;;88.70;44.55;;;;;;;-144.47;100.00;61586.06;5017251;28;20076;-79
2021/12/24 04:30:46;;;;;;;81.03;44.90;;;;;;;-144.47;100.00;61586.06;5034957;28;20535;-79
2021/12/24 04:33:20;;;;;;;79.13;45.90;;;;;;;-144.47;100.00;61586.06;5034987;28;20075;-79
2021/12/24 04:35:57;;;;;;;81.68;44.72;;;;;;;-144.47;100.00;61586.06;5034625;28;20037;-79
2021/12/24 04:38:35;;;;;;;76.03;43.90;;;;;;;-144.47;100.00;61586.06;5016819;28;20029;-79
2021/12/24 04:52:07;;;;;;;77.03;43.88;;;;;;;-144.47;100.00;61586.06;5031923;28;20585;-79
2021/12/24 05:05:22;;;;;;;82.00;42.95;;;;;;;-144.47;100.00;61586.06;5016573;28;20112;-79
2021/12/24 05:10:20;;;;;;;78.05;43.10;;;;;;;-144.47;100.00;61586.06;5015991;28;20025;-79
2021/12/24 05:12:46;;;;;;;94.27;44.70;;;;;;;-144.47;100.00;61586.06;5011987;28;20124;-79
2021/12/24 05:15:12;;;;;;;85.20;46.40;;;;;;;-144.47;100.00;61586.06;5016362;28;20028;-79
2021/12/24 05:23:28;;;;;;;88.72;47.25;;;;;;;-144.47;100.00;61586.06;5015563;28;20493;-80
2021/12/24 05:25:53;;;;;;;88.35;48.45;;;;;;;-144.47;100.00;61586.06;5016167;28;20045;-79
2021/12/24 05:28:20;;;;;;;85.50;48.25;;;;;;;-144.47;100.00;61586.06;5016062;28;20037;-78
2021/12/24 05:30:46;;;;;;;88.15;47.80;;;;;;;-144.47;100.00;61586.06;5033626;28;20049;-79
2021/12/24 05:33:14;;;;;;;86.07;47.63;;;;;;;-144.47;100.00;61586.06;5015450;28;20223;-79
2021/12/24 05:35:42;;;;;;;81.07;46.83;;;;;;;-144.47;100.00;61586.06;4998071;28;20113;-78
2021/12/24 05:38:09;;;;;;;78.43;46.05;;;;;;;-144.47;100.00;61586.06;5033537;28;20048;-79
2021/12/24 05:40:35;;;;;;;85.70;48.45;;;;;;;-144.47;100.00;61586.06;5031802;28;20029;-78
2021/12/24 05:43:00;;;;;;;87.22;46.40;;;;;;;-144.47;100.00;61586.06;5033474;28;20052;-79
2021/12/24 05:45:26;;;;;;;87.78;46.53;;;;;;;-144.47;100.00;61586.06;5011281;28;20450;-78
2021/12/24 05:48:21;;;;;;;77.68;44.35;;;;;;;-144.47;100.00;61586.06;4995741;28;20046;-79
2021/12/24 05:50:48;;;;;;;84.70;45.97;;;;;;;-144.47;100.00;61586.06;4998824;28;20044;-79
2021/12/24 05:53:32;;;;;;;81.18;46.08;;;;;;;-144.47;100.00;61586.06;5010195;28;20048;-78
2021/12/24 05:56:06;;;;;;;76.35;44.17;;;;;;;-144.47;100.00;61586.06;5015464;28;20029;-79
2021/12/24 05:58:31;;;;;;;77.95;44.70;;;;;;;-144.47;100.00;61586.06;5015048;28;20389;-79
2021/12/24 06:00:58;;;;;;;83.90;46.30;;;;;;;-144.47;100.00;61586.06;5033196;28;20033;-79
2021/12/24 06:03:33;;;;;;;80.93;45.97;;;;;;;-144.47;100.00;61586.06;5015152;28;20056;-80
2021/12/24 06:05:59;;;;;;;78.80;46.13;;;;;;;-144.47;100.00;61586.06;5032716;28;20141;-79
2021/12/24 06:08:24;;;;;;;79.45;43.92;;;;;;;-144.47;100.00;61586.06;5032424;28;20041;-80
2021/12/24 06:10:50;;;;;;;80.30;45.08;;;;;;;-144.47;100.00;61586.06;5033082;28;20026;-79
2021/12/24 06:13:15;;;;;;;78.00;43.58;;;;;;;-144.47;100.00;61586.06;5032998;28;20036;-80
2021/12/24 06:15:45;;;;;;;75.50;43.80;;;;;;;-144.47;100.00;61586.06;5032860;28;20933;-79
2021/12/24 06:18:21;;;;;;;75.43;43.22;;;;;;;-144.47;100.00;61586.06;5033161;28;20068;-79
2021/12/24 06:20:47;;;;;;;75.45;42.00;;;;;;;-144.47;100.00;61586.06;5032505;28;20048;-79
2021/12/24 06:23:13;;;;;;;75.78;41.38;;;;;;;-144.47;100.00;61586.06;5032376;28;20040;-79
2021/12/24 06:25:38;;;;;;;70.35;41.88;;;;;;;-144.47;100.00;61586.06;5032251;28;20038;-78
2021/12/24 06:28:04;;;;;;;71.57;42.25;;;;;;;-144.47;100.00;61586.06;5033199;28;20033;-79
2021/12/24 06:30:31;;;;;;;73.75;41.85;;;;;;;-144.47;100.00;61586.06;5032799;28;20389;-77
2021/12/24 06:32:57;;;;;;;74.53;43.70;;;;;;;-144.47;100.00;61586.06;5028818;28;20116;-78
2021/12/24 06:35:24;;;;;;;76.22;42.50;;;;;;;-144.47;100.00;61586.06;5032832;28;20116;-80
2021/12/24 06:37:50;;;;;;;79.07;41.58;;;;;;;-144.47;100.00;61586.06;5032377;28;20103;-80
2021/12/24 06:40:16;;;;;;;74.85;42.33;;;;;;;-144.47;100.00;61586.06;5033228;28;20337;-79
2021/12/24 06:42:42;;;;;;;74.25;41.75;;;;;;;-144.47;100.00;61586.06;5035314;28;20041;-78
2021/12/24 06:45:08;;;;;;;70.93;43.10;;;;;;;-144.47;100.00;61586.06;5033515;28;20389;-77
2021/12/24 06:47:33;;;;;;;73.60;42.47;;;;;;;-144.47;100.00;61586.06;5014051;28;20021;-79
2021/12/24 06:49:59;;;;;;;69.25;41.17;;;;;;;-144.47;100.00;61586.06;5031412;28;20445;-79
2021/12/24 06:52:27;;;;;;;70.30;42.28;;;;;;;-144.47;100.00;61586.06;5032257;28;20389;-80
2021/12/24 06:54:54;;;;;;;76.22;41.50;;;;;;;-144.47;100.00;61586.06;5032320;28;20036;-79
2021/12/24 06:57:23;;;;;;;71.63;40.85;;;;;;;-144.47;100.00;61586.06;5014147;28;20399;-80
2021/12/24 06:59:52;;;;;;;72.65;40.95;;;;;;;-144.47;100.00;61586.06;5014265;28;20025;-80
2021/12/24 07:02:17;;;;;;;71.88;42.47;;;;;;;-144.47;100.00;61586.06;5014304;28;20038;-78
2021/12/24 07:04:43;;;;;;;69.55;41.50;;;;;;;-144.47;100.00;61586.06;5031518;28;20098;-81
2021/12/24 07:07:08;;;;;;;70.40;40.10;;;;;;;-144.47;100.00;61586.06;5018004;28;20037;-80
2021/12/24 07:09:34;;;;;;;67.78;40.05;;;;;;;-144.47;100.00;61586.06;5032467;28;20029;-81
2021/12/24 07:12:00;;;;;;;72.68;40.80;;;;;;;-144.47;100.00;61586.06;5013183;28;20032;-77
2021/12/24 07:14:26;;;;;;;68.20;39.15;;;;;;;-144.47;100.00;61586.06;5030845;28;20033;-77
2021/12/24 07:16:52;;;;;;;69.28;39.13;;;;;;;-144.47;100.00;61586.06;5031277;28;20485;-78
2021/12/24 07:19:17;;;;;;;70.53;41.10;;;;;;;-144.47;100.00;61586.06;5028395;28;20417;-79
2021/12/24 07:21:43;;;;;;;68.72;40.15;;;;;;;-144.47;100.00;61586.06;5020797;28;20534;-80
2021/12/24 07:24:09;;;;;;;67.60;39.38;;;;;;;-144.47;100.00;61586.06;5021825;28;20041;-79
2021/12/24 07:26:35;;;;;;;70.32;40.17;;;;;;;-144.47;100.00;61586.06;5019639;28;20030;-77
2021/12/24 07:29:01;;;;;;;72.55;40.10;;;;;;;-144.47;100.00;61586.06;5023404;28;20033;-78
2021/12/24 07:31:27;;;;;;;68.70;39.58;;;;;;;-144.47;100.00;61586.06;5023009;28;20033;-78
2021/12/24 07:33:52;;;;;;;68.40;39.45;;;;;;;-144.47;100.00;61586.06;4335273;28;10000710;-77
2021/12/24 07:36:18;;;;;;;68.80;41.33;;;;;;;-144.47;100.00;61586.06;5021513;28;20044;-77
2021/12/24 07:38:43;;;;;;;67.45;40.72;;;;;;;-144.47;100.00;61586.06;4999682;28;20032;-76
2021/12/24 07:41:09;;;;;;;69.43;40.28;;;;;;;-144.47;100.00;61586.06;5020145;28;20045;-77
2021/12/24 07:43:35;;;;;;;66.50;39.80;;;;;;;-144.47;100.00;61586.06;5016188;28;20474;-77
2021/12/24 07:46:00;;;;;;;66.57;38.58;;;;;;;-144.47;100.00;61586.06;5017557;28;20406;-77
2021/12/24 07:48:28;;;;;;;66.70;38.72;;;;;;;-144.47;100.00;61586.06;4998165;28;20067;-76
2021/12/24 07:53:21;;;;;;;68.18;38.90;;;;;;;-144.47;100.00;61586.06;5005615;28;20075;-76
2021/12/24 07:55:47;;;;;;;67.15;38.88;;;;;;;-144.47;100.00;61586.06;5016558;28;20077;-77
2021/12/24 07:58:14;;;;;;;65.65;38.42;;;;;;;-144.47;100.00;61586.06;5016771;28;20069;-77
2021/12/24 08:00:42;;;;;;;67.15;38.75;;;;;;;-144.47;100.00;61586.06;5016594;28;20071;-77
2021/12/24 08:03:07;;;;;;;67.18;39.35;;;;;;;-144.47;100.00;61586.06;5020057;28;20045;-75
2021/12/24 08:05:35;;;;;;;72.25;40.45;;;;;;;-144.47;100.00;61586.06;5016470;28;20036;-76
2021/12/24 08:08:02;;;;;;;67.75;41.33;;;;;;;-144.47;100.00;61586.06;5020152;28;20444;-77
2021/12/24 08:10:30;;;;;;;71.82;40.78;;;;;;;-144.47;100.00;61586.06;5019331;28;20477;-76
2021/12/24 08:12:55;;;;;;;63.53;40.20;;;;;;;-144.47;100.00;61586.06;5015830;28;20261;-77
2021/12/24 08:15:21;;;;;;;70.85;41.33;;;;;;;-144.47;100.00;61586.06;5019098;28;21139;-76
2021/12/24 08:17:47;;;;;;;72.65;42.33;;;;;;;-144.47;100.00;61586.06;5017574;28;20030;-75
2021/12/24 08:20:15;;;;;;;75.35;41.83;;;;;;;-144.47;100.00;61586.06;4999103;28;20443;-76
2021/12/24 08:22:41;;;;;;;76.03;42.85;;;;;;;-144.47;100.00;61586.06;5027196;28;20444;-76
2021/12/24 08:25:09;;;;;;;75.78;40.92;;;;;;;-144.47;100.00;61586.06;5010448;28;20145;-77
2021/12/24 08:27:35;;;;;;;75.60;43.13;;;;;;;-144.47;100.00;61586.06;4332129;28;10021430;-76
2021/12/24 08:30:03;;;;;;;78.13;42.65;;;;;;;-144.47;100.00;61586.06;5023443;28;20115;-76
2021/12/24 08:32:29;;;;;;;68.78;41.22;;;;;;;-144.47;100.00;61586.06;5026536;28;20533;-77
2021/12/24 08:34:55;;;;;;;76.35;41.88;;;;;;;-144.47;100.00;61586.06;5029601;28;20117;-77
2021/12/24 08:37:24;;;;;;;72.07;40.75;;;;;;;-144.47;100.00;61586.06;5007830;28;20033;-77
2021/12/24 08:39:49;;;;;;;74.57;42.88;;;;;;;-144.47;100.00;61586.06;5020293;28;20087;-75
2021/12/24 08:42:17;;;;;;;75.72;44.28;;;;;;;-144.47;100.00;61586.06;5017786;28;20034;-75
2021/12/24 08:44:42;;;;;;;74.57;42.15;;;;;;;-144.47;100.00;61586.06;5018779;28;20041;-75
2021/12/24 08:47:08;;;;;;;78.30;43.28;;;;;;;-144.47;100.00;61586.06;5017639;28;20445;-75
2021/12/24 08:49:34;;;;;;;78.22;43.95;;;;;;;-144.47;100.00;61586.06;4998392;28;20030;-75
2021/12/24 08:51:59;;;;;;;77.70;43.15;;;;;;;-144.47;100.00;61586.06;5003093;28;20124;-76
2021/12/24 08:54:34;;;;;;;78.07;42.83;;;;;;;-144.47;100.00;61586.06;5016427;28;20037;-78
2021/12/24 08:57:09;;;;;;;78.05;43.17;;;;;;;-144.47;100.00;61586.06;5002442;28;20042;-78
2021/12/24 08:59:35;;;;;;;80.85;43.70;;;;;;;-144.47;100.00;61586.06;5014729;28;20680;-76
2021/12/24 09:02:03;;;;;;;77.22;43.15;;;;;;;-144.47;100.00;61586.06;5015881;28;20033;-75
2021/12/24 09:04:29;;;;;;;76.97;42.65;;;;;;;-144.47;100.00;61586.06;5020527;28;20037;-76
2021/12/24 09:06:55;;;;;;;86.75;43.63;;;;;;;-144.47;100.00;61586.06;5018180;28;20654;-76
2021/12/24 09:09:20;;;;;;;78.15;43.25;;;;;;;-144.47;100.00;61586.06;5018109;28;20041;-76
2021/12/24 09:11:47;;;;;;;81.03;44.25;;;;;;;-144.47;100.00;61586.06;5022573;28;20022;-77
2021/12/24 09:14:17;;;;;;;81.13;43.28;;;;;;;-144.47;100.00;61586.06;5003702;28;20061;-76
2021/12/24 09:16:44;;;;;;;80.97;44.55;;;;;;;-144.47;100.00;61586.06;5022467;28;20038;-77
2021/12/24 09:19:14;;;;;;;79.50;42.60;;;;;;;-144.47;100.00;61586.06;5005000;28;20085;-77
2021/12/24 09:21:39;;;;;;;84.75;44.08;;;;;;;-144.47;100.00;61586.06;5021182;28;20065;-76
2021/12/24 09:24:07;;;;;;;78.32;42.92;;;;;;;-144.47;100.00;61586.06;5021804;28;20085;-75
2021/12/24 09:26:33;;;;;;;75.88;43.42;;;;;;;-144.47;100.00;61586.06;5020679;28;20034;-74
2021/12/24 09:29:00;;;;;;;76.78;43.08;;;;;;;-144.47;100.00;61586.06;5021991;28;20117;-75
2021/12/24 09:31:26;;;;;;;72.90;41.42;;;;;;;-144.47;100.00;61586.06;5020811;28;20389;-75
2021/12/24 09:33:53;;;;;;;70.32;41.35;;;;;;;-144.47;100.00;61586.06;5022589;28;20037;-73
2021/12/24 09:36:24;;;;;;;72.10;41.45;;;;;;;-144.47;100.00;61586.06;5021404;28;20026;-75
2021/12/24 09:38:52;;;;;;;72.95;42.13;;;;;;;-144.47;100.00;61586.06;5022728;28;20037;-74
2021/12/24 09:41:18;;;;;;;67.72;41.38;;;;;;;-144.47;100.00;61586.06;5021209;28;20033;-75
2021/12/24 09:43:44;;;;;;;78.88;41.47;;;;;;;-144.47;100.00;61586.06;5021662;28;20041;-76
2021/12/24 09:46:11;;;;;;;72.68;42.83;;;;;;;-144.47;100.00;61586.06;5021305;28;20133;-73
2021/12/24 09:48:38;;;;;;;76.75;42.00;;;;;;;-144.47;100.00;61586.06;5021835;28;20086;-74
2021/12/24 09:51:03;;;;;;;76.80;43.42;;;;;;;-144.47;100.00;61586.06;5025930;28;20045;-75
2021/12/24 09:53:29;;;;;;;72.25;42.13;;;;;;;-144.47;100.00;61586.06;5033042;28;20808;-76
2021/12/24 09:55:55;;;;;;;76.13;42.75;;;;;;;-144.47;100.00;61586.06;5033876;28;20037;-75
2021/12/24 09:58:21;;;;;;;75.05;42.92;;;;;;;-144.47;100.00;61586.06;5033959;28;20029;-77
2021/12/24 10:00:46;;;;;;;75.53;43.92;;;;;;;-144.47;100.00;61586.06;5032173;28;20160;-77
2021/12/24 10:03:28;;;;;;;70.68;42.53;;;;;;;-144.47;100.00;61586.06;5033251;28;20048;-77
2021/12/24 10:05:54;;;;;;;75.25;42.85;;;;;;;-144.47;100.00;61586.06;5025259;28;20025;-76
2021/12/24 10:08:22;;;;;;;77.13;42.67;;;;;;;-144.47;100.00;61586.06;5019116;28;20041;-76
2021/12/24 10:10:52;;;;;;;77.03;42.00;;;;;;;-144.47;100.00;61586.06;5021069;28;20498;-76
2021/12/24 10:13:26;;;;;;;77.17;44.90;;;;;;;-144.47;100.00;61586.06;5018887;28;20505;-77
2021/12/24 10:15:53;;;;;;;75.18;41.03;;;;;;;-144.47;100.00;61586.06;5023236;28;20430;-76
2021/12/24 10:18:37;;;;;;;73.90;43.03;;;;;;;-144.47;100.00;61586.06;5019159;28;20025;-77
2021/12/24 10:21:09;;;;;;;74.45;43.78;;;;;;;-144.47;100.00;61586.06;5003306;28;20394;-78
2021/12/24 10:23:45;;;;;;;75.13;43.90;;;;;;;-144.47;100.00;61586.06;5022062;28;20025;-77
2021/12/24 10:26:25;;;;;;;73.85;42.67;;;;;;;-144.47;100.00;61586.06;5024013;28;20033;-75
2021/12/24 10:28:55;;;;;;;76.22;43.97;;;;;;;-144.47;100.00;61586.06;5022663;28;20034;-76
2021/12/24 10:31:28;;;;;;;79.30;44.33;;;;;;;-144.47;100.00;61586.06;5014566;28;20038;-75
2021/12/24 10:34:10;;;;;;;78.15;44.08;;;;;;;-144.47;100.00;61586.06;5021866;28;20037;-75
2021/12/24 10:36:56;;;;;;;71.95;43.05;;;;;;;-144.47;100.00;61586.06;5019328;28;20063;-74
2021/12/24 10:39:29;;;;;;;75.32;43.75;;;;;;;-144.47;100.00;61586.06;5001548;28;20493;-75
2021/12/24 10:41:57;;;;;;;76.90;43.70;;;;;;;-144.47;100.00;61586.06;5019130;28;20030;-79
2021/12/24 10:44:29;;;;;;;75.32;43.80;;;;;;;-144.47;100.00;61586.06;5017441;28;20032;-78
2021/12/24 10:47:19;;;;;;;75.05;43.17;;;;;;;-144.47;100.00;61586.06;5028251;28;20522;-77
2021/12/24 10:50:03;;;;;;;78.43;44.27;;;;;;;-144.47;100.00;61586.06;5010199;28;20029;-81
2021/12/24 10:55:23;;;;;;;80.45;43.65;;;;;;;-144.47;100.00;61586.06;5018364;28;20072;-78
2021/12/24 10:57:53;;;;;;;74.85;44.05;;;;;;;-144.47;100.00;61586.06;5024234;28;20053;-77
2021/12/24 11:00:21;;;;;;;76.57;44.00;;;;;;;-144.47;100.00;61586.06;5019619;28;20174;-79
2021/12/24 11:03:03;;;;;;;78.03;44.25;;;;;;;-144.47;100.00;61586.06;5001144;28;20041;-77
2021/12/24 11:05:30;;;;;;;75.40;44.90;;;;;;;-144.47;100.00;61586.06;5018788;28;20037;-79
2021/12/24 11:07:57;;;;;;;78.20;44.53;;;;;;;-144.47;100.00;61586.06;5018207;28;20504;-79
2021/12/24 11:10:37;;;;;;;77.78;45.92;;;;;;;-144.47;100.00;61586.06;4998798;28;20030;-77
2021/12/24 11:13:10;;;;;;;81.17;45.83;;;;;;;-144.47;100.00;61586.06;5001414;28;20652;-77
2021/12/24 11:15:39;;;;;;;75.50;45.30;;;;;;;-144.47;100.00;61586.06;5000773;28;20449;-77
2021/12/24 11:18:07;;;;;;;76.97;44.00;;;;;;;-144.47;100.00;61586.06;5016565;28;20169;-77
2021/12/24 11:20:34;;;;;;;79.65;45.22;;;;;;;-144.47;100.00;61586.06;5017140;28;20034;-78
2021/12/24 11:23:14;;;;;;;79.22;45.47;;;;;;;-144.47;100.00;61586.06;5016914;28;20068;-77
2021/12/24 11:25:44;;;;;;;;;;;;;;;-144.47;100.00;61586.06;5018884;28;20372;-80
2021/12/24 11:28:11;;;;;;;84.32;45.67;;;;;;;-144.47;100.00;61586.06;5022436;28;19916;-76
2021/12/24 11:30:41;;;;;;;79.40;45.60;;;;;;;-144.47;100.00;61586.06;5020331;28;20418;-80
2021/12/24 11:33:07;;;;;;;77.57;44.78;;;;;;;-144.47;100.00;61586.06;5022487;28;20025;-79
2021/12/24 11:35:33;;;;;;;88.07;46.58;;;;;;;-144.47;100.00;61586.06;5005483;28;20025;-81
2021/12/24 11:38:01;;;;;;;86.93;46.58;;;;;;;-144.47;100.00;61586.06;5019590;28;20033;-82
2021/12/24 11:40:28;;;;;;;85.85;47.63;;;;;;;-144.47;100.00;61586.06;5022623;28;20087;-79
2021/12/24 11:42:59;;;;;;;78.80;46.67;;;;;;;-144.47;100.00;61586.06;5019156;28;20033;-81
2021/12/24 11:45:26;;;;;;;87.50;47.80;;;;;;;-144.47;100.00;61586.06;5007940;28;20061;-83
2021/12/24 11:47:52;;;;;;;87.38;48.28;;;;;;;-144.47;100.00;61586.06;5030056;28;20108;-78
2021/12/24 11:50:20;;;;;;;87.38;46.63;;;;;;;-144.47;100.00;61586.06;5022038;28;20073;-81
2021/12/24 11:52:48;;;;;;;82.95;47.13;;;;;;;-144.47;100.00;61586.06;4346461;23;10000757;-82
2021/12/24 11:55:14;;;;;;;85.60;48.05;;;;;;;-144.47;100.00;61586.06;5043678;28;20161;-83
2021/12/24 11:57:53;;;;;;;81.18;47.10;;;;;;;-144.47;100.00;61586.06;4691352;28;10000311;-82
2021/12/24 12:00:35;;;;;;;79.72;46.72;;;;;;;-144.47;100.00;61586.06;5048717;28;20040;-79
2021/12/24 12:03:00;;;;;;;87.57;48.08;;;;;;;-144.47;100.00;61586.06;5027196;28;20040;-82
2021/12/24 12:05:33;;;;;;;85.97;47.50;;;;;;;-144.47;100.00;61586.06;5026073;28;20029;-82
2021/12/24 12:08:29;;;;;;;88.78;47.15;;;;;;;-144.47;100.00;61586.06;5045529;28;20037;-82
2021/12/24 12:11:04;;;;;;;84.35;47.55;;;;;;;-144.47;100.00;61586.06;5028873;28;20188;-81
2021/12/24 12:13:41;;;;;;;90.25;50.20;;;;;;;-144.47;100.00;61586.06;5031108;28;20029;-80
2021/12/24 12:16:10;;;;;;;83.93;47.67;;;;;;;-144.47;100.00;61586.06;5051371;28;20033;-82
2021/12/24 12:19:00;;;;;;;90.13;47.92;;;;;;;-144.47;100.00;61586.06;5049710;28;20029;-82
2021/12/24 12:21:36;;;;;;;85.47;47.33;;;;;;;-144.47;100.00;61586.06;5048922;28;20037;-82
2021/12/24 12:26:41;;;;;;;90.78;49.13;;;;;;;-144.47;100.00;61586.06;5048912;28;20113;-81
2021/12/24 12:29:21;;;;;;;89.32;49.25;;;;;;;-144.47;100.00;61586.06;5048822;28;20040;-82
2021/12/24 12:31:49;;;;;;;87.53;47.87;;;;;;;-144.47;100.00;61586.06;4693920;28;9999746;-80
2021/12/24 12:34:37;;;;;;;92.82;48.75;;;;;;;-144.47;100.00;61586.06;5026758;28;20036;-81
2021/12/24 12:37:26;;;;;;;86.90;49.63;;;;;;;-144.47;100.00;61586.06;5050317;28;20490;-82
2021/12/24 12:39:55;;;;;;;86.80;48.33;;;;;;;-144.47;100.00;61586.06;5052646;28;20040;-82
2021/12/24 12:42:24;;;;;;;83.95;46.45;;;;;;;-144.47;100.00;61586.06;5033540;28;20041;-81
2021/12/24 12:44:53;;;;;;;88.35;46.47;;;;;;;-144.47;100.00;61586.06;5052478;28;20041;-82